Time;durP1;ratioP1;P1;durP2;ratioP2;P2;SDS_P1;SDS_P2;PMS_P1;PMS_P2;Temp;Humidity;BMP_temperature;BMP_pressure;BME280_temperature;BME280_humidity;BME280_pressure;Samples;Min_cycle;Max_cycle;Signal;HPM_P1;HPM_P2
2021/09/10 00:01:12;;;;;;;10.30;7.63;;;14.70;99.90;;;;;;4980383;28;20202;-83
2021/09/10 00:03:38;;;;;;;8.50;7.40;;;14.60;99.90;;;;;;4980577;28;20188;-83
2021/09/10 00:06:04;;;;;;;7.90;7.07;;;;;;;;;;4980238;28;20283;-83
2021/09/10 00:08:29;;;;;;;9.20;7.13;;;14.50;99.90;;;;;;4990392;28;20172;-82
2021/09/10 00:10:55;;;;;;;8.50;7.60;;;14.40;99.90;;;;;;4996634;28;20211;-82
2021/09/10 00:13:21;;;;;;;7.80;7.00;;;14.40;99.90;;;;;;4993446;28;20203;-83
2021/09/10 00:15:46;;;;;;;8.50;7.50;;;14.40;99.90;;;;;;4978525;28;20184;-83
2021/09/10 00:18:12;;;;;;;9.97;7.73;;;14.30;99.90;;;;;;4979655;28;20188;-83
2021/09/10 00:20:38;;;;;;;9.67;7.93;;;14.30;99.90;;;;;;4980088;28;20204;-83
2021/09/10 00:23:04;;;;;;;8.27;7.37;;;14.30;99.90;;;;;;4980234;28;20248;-82
2021/09/10 00:25:30;;;;;;;11.03;7.37;;;14.30;99.90;;;;;;4980216;28;20223;-83
2021/09/10 00:27:55;;;;;;;7.67;6.47;;;14.20;99.90;;;;;;4980522;28;20568;-83
2021/09/10 00:30:21;;;;;;;8.30;6.80;;;14.20;99.90;;;;;;4982228;28;20256;-83
2021/09/10 00:32:46;;;;;;;8.37;7.33;;;14.20;99.90;;;;;;4983397;28;20245;-83
2021/09/10 00:35:12;;;;;;;9.60;7.27;;;14.10;99.90;;;;;;4982679;28;20373;-83
2021/09/10 00:37:38;;;;;;;9.83;7.67;;;14.10;99.90;;;;;;4982218;28;20279;-83
2021/09/10 00:40:05;;;;;;;8.97;7.03;;;14.10;99.90;;;;;;4982467;28;20200;-83
2021/09/10 00:42:31;;;;;;;7.73;6.93;;;14.10;99.90;;;;;;4984146;28;20184;-83
2021/09/10 00:44:57;;;;;;;9.73;7.73;;;14.10;99.90;;;;;;4983137;28;20180;-83
2021/09/10 00:47:23;;;;;;;8.50;7.60;;;14.10;99.90;;;;;;4983808;28;20219;-83
2021/09/10 00:49:49;;;;;;;8.97;7.20;;;14.20;99.90;;;;;;4984369;28;20231;-83
2021/09/10 00:52:16;;;;;;;9.20;6.77;;;14.20;99.90;;;;;;4983666;28;20250;-82
2021/09/10 00:54:42;;;;;;;8.03;6.80;;;14.30;99.90;;;;;;4982760;28;20246;-83
2021/09/10 00:57:08;;;;;;;8.57;7.10;;;14.30;99.90;;;;;;4981402;28;20690;-83
2021/09/10 00:59:33;;;;;;;11.53;7.67;;;14.40;99.90;;;;;;4981546;28;20176;-82
2021/09/10 01:02:00;;;;;;;8.13;6.80;;;14.50;99.90;;;;;;4978116;28;20199;-82
2021/09/10 01:04:26;;;;;;;7.77;6.20;;;14.50;99.90;;;;;;4981940;28;20541;-82
2021/09/10 01:06:53;;;;;;;11.23;6.87;;;14.50;99.90;;;;;;4982075;28;20236;-82
2021/09/10 01:09:20;;;;;;;8.67;7.30;;;14.60;99.90;;;;;;4981337;28;20234;-83
2021/09/10 01:11:49;;;;;;;7.03;6.33;;;14.60;99.90;;;;;;4982433;28;20193;-82
2021/09/10 01:14:16;;;;;;;7.67;6.80;;;14.70;99.90;;;;;;4985057;28;20187;-83
2021/09/10 01:16:42;;;;;;;9.70;6.97;;;14.70;99.90;;;;;;4986389;28;20173;-83
2021/09/10 01:19:08;;;;;;;8.90;6.20;;;14.70;99.90;;;;;;4986050;28;20183;-83
2021/09/10 01:21:34;;;;;;;8.23;6.90;;;14.70;99.90;;;;;;4982728;28;20227;-83
2021/09/10 01:23:59;;;;;;;8.47;6.80;;;14.70;99.90;;;;;;4983834;28;20176;-83
2021/09/10 01:26:25;;;;;;;9.87;6.67;;;14.80;99.90;;;;;;4982692;28;20645;-83
2021/09/10 01:28:50;;;;;;;10.37;6.97;;;14.80;99.90;;;;;;4984287;28;20235;-83
2021/09/10 01:31:16;;;;;;;8.77;7.30;;;14.80;99.90;;;;;;4984759;28;20199;-83
2021/09/10 01:33:42;;;;;;;8.10;5.97;;;14.80;99.90;;;;;;4988069;28;20200;-82
2021/09/10 01:36:09;;;;;;;8.07;6.57;;;14.80;99.90;;;;;;4999779;28;20605;-83
2021/09/10 01:38:35;;;;;;;7.87;6.53;;;14.80;99.90;;;;;;4992219;28;20540;-83
2021/09/10 01:41:00;;;;;;;8.13;6.57;;;14.80;99.90;;;;;;4981340;28;20196;-83
2021/09/10 01:43:26;;;;;;;8.50;6.77;;;14.80;99.90;;;;;;4980292;28;20526;-83
2021/09/10 01:45:52;;;;;;;8.07;6.37;;;14.70;99.90;;;;;;4980515;28;20628;-83
2021/09/10 01:48:17;;;;;;;8.17;6.83;;;14.80;99.90;;;;;;4982419;28;20180;-83
2021/09/10 01:50:43;;;;;;;7.00;6.30;;;14.70;99.90;;;;;;4982153;28;20204;-83
2021/09/10 01:53:09;;;;;;;9.80;6.83;;;14.70;99.90;;;;;;4980528;28;20291;-83
2021/09/10 01:55:35;;;;;;;7.50;6.40;;;14.70;99.90;;;;;;4980871;28;20545;-83
2021/09/10 01:58:01;;;;;;;8.90;6.90;;;14.70;99.90;;;;;;4982805;28;20528;-83
2021/09/10 02:00:27;;;;;;;7.50;6.47;;;14.70;99.90;;;;;;4982223;28;20228;-83
2021/09/10 02:02:53;;;;;;;7.10;6.40;;;14.70;99.90;;;;;;4981970;28;20208;-83
2021/09/10 02:05:18;;;;;;;7.50;6.80;;;14.70;99.90;;;;;;4982110;28;20685;-83
2021/09/10 02:07:44;;;;;;;8.77;6.93;;;14.70;99.90;;;;;;4981050;28;20184;-82
2021/09/10 02:10:12;;;;;;;9.13;6.90;;;14.70;99.90;;;;;;4980303;28;20204;-83
2021/09/10 02:12:38;;;;;;;9.10;6.73;;;14.70;99.90;;;;;;4982369;28;20210;-83
2021/09/10 02:15:06;;;;;;;7.67;6.87;;;14.70;99.90;;;;;;4982010;28;20180;-83
2021/09/10 02:17:31;;;;;;;9.37;7.13;;;14.60;99.90;;;;;;4982297;28;20208;-83
2021/09/10 02:19:57;;;;;;;10.57;7.03;;;14.70;99.90;;;;;;4981424;28;20623;-83
2021/09/10 02:22:23;;;;;;;7.63;6.43;;;14.60;99.90;;;;;;4983246;28;20172;-83
2021/09/10 02:24:48;;;;;;;10.50;7.50;;;14.60;99.90;;;;;;4981975;28;20530;-83
2021/09/10 02:27:14;;;;;;;9.23;7.77;;;14.60;99.90;;;;;;4983803;28;20212;-83
2021/09/10 02:29:40;;;;;;;7.60;6.83;;;14.60;99.90;;;;;;4982773;28;20180;-83
2021/09/10 02:32:06;;;;;;;8.83;7.07;;;14.60;99.90;;;;;;4982253;28;20295;-83
2021/09/10 02:34:32;;;;;;;12.53;7.47;;;14.50;99.90;;;;;;4984318;28;20188;-83
2021/09/10 02:36:57;;;;;;;8.30;7.17;;;14.50;99.90;;;;;;4983152;28;20180;-83
2021/09/10 02:39:23;;;;;;;11.03;7.33;;;14.50;99.90;;;;;;4983290;28;20176;-83
2021/09/10 02:41:49;;;;;;;8.10;7.13;;;14.40;99.90;;;;;;4982653;28;20678;-83
2021/09/10 02:44:14;;;;;;;9.53;7.87;;;14.40;99.90;;;;;;4982387;28;20259;-83
2021/09/10 02:46:40;;;;;;;8.33;7.43;;;14.40;99.90;;;;;;4982202;28;20266;-83
2021/09/10 02:49:06;;;;;;;8.57;7.40;;;14.40;99.90;;;;;;4981390;28;20191;-83
2021/09/10 02:51:32;;;;;;;11.47;7.40;;;14.30;99.90;;;;;;4981228;28;20696;-83
2021/09/10 02:53:58;;;;;;;10.50;7.97;;;14.30;99.90;;;;;;4980653;28;20208;-83
2021/09/10 02:56:24;;;;;;;9.33;7.27;;;14.30;99.90;;;;;;4981562;28;20184;-83
2021/09/10 02:58:50;;;;;;;7.57;6.70;;;14.20;99.90;;;;;;4982131;28;20186;-83
2021/09/10 03:01:15;;;;;;;8.27;7.47;;;14.30;99.90;;;;;;4983665;28;20203;-83
2021/09/10 03:03:41;;;;;;;8.30;7.43;;;14.20;99.90;;;;;;4997452;28;20195;-82
2021/09/10 03:06:07;;;;;;;8.50;7.10;;;14.20;99.90;;;;;;4998770;28;20581;-82
2021/09/10 03:08:32;;;;;;;8.43;7.33;;;14.20;99.90;;;;;;4987501;28;20199;-83
2021/09/10 03:10:58;;;;;;;11.43;7.73;;;14.10;99.90;;;;;;4984175;28;20547;-83
2021/09/10 03:13:24;;;;;;;9.47;8.07;;;14.10;99.90;;;;;;4983372;28;20208;-83
2021/09/10 03:15:50;;;;;;;9.83;7.73;;;14.10;99.90;;;;;;4979371;28;20187;-82
2021/09/10 03:18:15;;;;;;;9.10;7.87;;;14.10;99.90;;;;;;4978641;28;20184;-82
2021/09/10 03:20:42;;;;;;;10.57;7.07;;;14.00;99.90;;;;;;4979730;28;20693;-82
2021/09/10 03:23:08;;;;;;;9.70;7.60;;;14.00;99.90;;;;;;4979541;28;20172;-82
2021/09/10 03:25:34;;;;;;;9.27;7.13;;;13.90;99.90;;;;;;4978942;28;20243;-82
2021/09/10 03:28:00;;;;;;;10.47;8.43;;;14.00;99.90;;;;;;4980188;28;20187;-82
2021/09/10 03:30:25;;;;;;;8.83;7.73;;;14.00;99.90;;;;;;4978081;28;20226;-82
2021/09/10 03:32:51;;;;;;;8.93;8.00;;;13.90;99.90;;;;;;4980159;28;20211;-82
2021/09/10 03:35:17;;;;;;;9.80;7.20;;;13.90;99.90;;;;;;4979975;28;20666;-82
2021/09/10 03:37:42;;;;;;;9.97;8.50;;;13.90;99.90;;;;;;4986136;28;20184;-83
2021/09/10 03:40:09;;;;;;;8.77;7.87;;;13.90;99.90;;;;;;4979257;28;20231;-83
2021/09/10 03:42:35;;;;;;;8.87;7.70;;;13.90;99.90;;;;;;4980078;28;20611;-83
2021/09/10 03:45:05;;;;;;;11.33;7.83;;;13.90;99.90;;;;;;4979135;28;20196;-83
2021/09/10 03:47:30;;;;;;;10.10;7.73;;;13.90;99.90;;;;;;4979631;28;20202;-83
2021/09/10 03:49:56;;;;;;;9.93;7.70;;;13.90;99.90;;;;;;4979828;28;20199;-83
2021/09/10 03:52:22;;;;;;;8.63;7.33;;;13.90;99.90;;;;;;4980205;28;20222;-83
2021/09/10 03:54:47;;;;;;;7.73;6.93;;;13.90;99.90;;;;;;4980890;28;20168;-83
2021/09/10 03:57:13;;;;;;;8.33;7.00;;;13.90;99.90;;;;;;4981060;28;20646;-83
2021/09/10 03:59:39;;;;;;;9.40;7.37;;;14.00;99.90;;;;;;4980769;28;20180;-83
2021/09/10 04:02:05;;;;;;;9.43;8.13;;;13.90;99.90;;;;;;4980014;28;20257;-84
2021/09/10 04:04:30;;;;;;;8.20;7.40;;;13.90;99.90;;;;;;4980556;28;20548;-83
2021/09/10 04:06:56;;;;;;;10.87;7.87;;;13.90;99.90;;;;;;4987314;28;20172;-82
2021/09/10 04:09:21;;;;;;;9.10;7.10;;;13.90;99.90;;;;;;4985834;28;20232;-84
2021/09/10 04:11:47;;;;;;;9.13;7.43;;;13.90;99.90;;;;;;4984150;28;20195;-84
2021/09/10 04:14:13;;;;;;;10.50;7.93;;;13.90;99.90;;;;;;4984448;28;20183;-83
2021/09/10 04:16:38;;;;;;;9.70;8.10;;;13.90;99.90;;;;;;4984937;28;20172;-83
2021/09/10 04:19:04;;;;;;;10.47;8.67;;;13.90;99.90;;;;;;4984195;28;20183;-83
2021/09/10 04:21:31;;;;;;;10.20;7.73;;;13.80;99.90;;;;;;4984795;28;20196;-83
2021/09/10 04:23:57;;;;;;;9.97;8.47;;;13.70;99.90;;;;;;4984988;28;20180;-83
2021/09/10 04:26:23;;;;;;;9.43;7.87;;;13.70;99.90;;;;;;4985733;28;20172;-81
2021/09/10 04:28:49;;;;;;;9.93;8.00;;;13.60;99.90;;;;;;4983869;28;20275;-81
2021/09/10 04:31:16;;;;;;;10.20;8.17;;;13.60;99.90;;;;;;4983838;28;20219;-81
2021/09/10 04:33:43;;;;;;;11.03;7.87;;;13.60;99.90;;;;;;4983757;28;20280;-81
2021/09/10 04:36:09;;;;;;;11.70;8.37;;;13.60;99.90;;;;;;4989551;28;20196;-82
2021/09/10 04:38:34;;;;;;;8.73;7.83;;;13.60;99.90;;;;;;5001827;28;20156;-83
2021/09/10 04:41:00;;;;;;;10.20;8.27;;;13.60;99.90;;;;;;4996342;28;20196;-81
2021/09/10 04:43:26;;;;;;;8.87;7.97;;;13.60;99.90;;;;;;4984250;28;20184;-83
2021/09/10 04:45:51;;;;;;;9.13;7.93;;;13.60;99.90;;;;;;4985881;28;20183;-81
2021/09/10 04:48:17;;;;;;;9.00;8.00;;;13.60;99.90;;;;;;4984832;28;20215;-84
2021/09/10 04:50:43;;;;;;;9.93;8.20;;;13.60;99.90;;;;;;4985139;28;20211;-84
2021/09/10 04:53:08;;;;;;;10.87;8.23;;;13.70;99.90;;;;;;4984088;28;20200;-84
2021/09/10 04:55:34;;;;;;;9.97;7.87;;;13.70;99.90;;;;;;4984352;28;20177;-84
2021/09/10 04:58:00;;;;;;;9.20;8.13;;;13.60;99.90;;;;;;4983714;28;20219;-84
2021/09/10 05:00:25;;;;;;;9.67;8.30;;;13.60;99.90;;;;;;4984007;28;20204;-84
2021/09/10 05:02:51;;;;;;;12.27;8.10;;;13.70;99.90;;;;;;4985057;28;20239;-84
2021/09/10 05:05:17;;;;;;;8.57;7.67;;;13.60;99.90;;;;;;4987067;28;20172;-84
2021/09/10 05:07:43;;;;;;;8.80;7.83;;;13.60;99.90;;;;;;4987198;28;20181;-85
2021/09/10 05:10:09;;;;;;;10.40;7.93;;;13.60;99.90;;;;;;4987229;28;20204;-84
2021/09/10 05:12:36;;;;;;;9.37;7.87;;;13.60;99.90;;;;;;4984294;28;20278;-84
2021/09/10 05:15:01;;;;;;;7.87;6.83;;;13.60;99.90;;;;;;4985595;28;20176;-84
2021/09/10 05:17:27;;;;;;;8.20;7.23;;;13.60;99.90;;;;;;4983046;28;20664;-85
2021/09/10 05:19:53;;;;;;;8.70;7.27;;;13.60;99.90;;;;;;4985076;28;20203;-84
2021/09/10 05:22:18;;;;;;;10.40;7.87;;;13.60;99.90;;;;;;4984932;28;20172;-84
2021/09/10 05:24:44;;;;;;;8.33;7.47;;;13.60;99.90;;;;;;4984786;28;20244;-84
2021/09/10 05:27:10;;;;;;;9.80;7.40;;;13.60;99.90;;;;;;4986206;28;20172;-84
2021/09/10 05:29:36;;;;;;;8.60;7.33;;;13.70;99.90;;;;;;4982944;28;20244;-84
2021/09/10 05:32:02;;;;;;;8.87;7.97;;;13.70;99.90;;;;;;4986744;28;20177;-84
2021/09/10 05:34:27;;;;;;;10.07;7.07;;;13.70;99.90;;;;;;4982046;28;20202;-84
2021/09/10 05:36:53;;;;;;;10.23;7.67;;;13.70;99.90;;;;;;4981727;28;20259;-84
2021/09/10 05:39:19;;;;;;;11.07;7.67;;;13.80;99.90;;;;;;4983106;28;20200;-84
2021/09/10 05:41:44;;;;;;;9.70;7.20;;;13.80;99.90;;;;;;4982465;28;20235;-84
2021/09/10 05:44:10;;;;;;;8.07;7.27;;;13.90;99.90;;;;;;4982930;28;20227;-84
2021/09/10 05:46:36;;;;;;;13.17;7.43;;;13.90;99.90;;;;;;4979498;28;20180;-84
2021/09/10 05:49:03;;;;;;;8.80;7.07;;;14.00;99.90;;;;;;4980876;28;20247;-84
2021/09/10 05:51:29;;;;;;;8.67;7.50;;;14.00;99.90;;;;;;4978629;28;20205;-84
2021/09/10 05:53:54;;;;;;;9.03;7.17;;;14.10;99.90;;;;;;4977896;28;20218;-83
2021/09/10 05:56:20;;;;;;;9.20;7.37;;;14.10;99.90;;;;;;4978229;28;20184;-83
2021/09/10 05:58:46;;;;;;;8.60;6.77;;;14.20;99.90;;;;;;4977575;28;20184;-83
2021/09/10 06:01:11;;;;;;;10.40;6.83;;;14.20;99.90;;;;;;4976674;28;20204;-83
2021/09/10 06:03:37;;;;;;;8.00;7.20;;;14.30;99.90;;;;;;4979160;28;20646;-83
2021/09/10 06:06:03;;;;;;;12.47;7.30;;;14.30;99.90;;;;;;4997818;28;20195;-83
2021/09/10 06:08:28;;;;;;;11.90;7.10;;;14.40;99.90;;;;;;4992457;28;20177;-84
2021/09/10 06:10:54;;;;;;;9.07;7.20;;;14.40;99.90;;;;;;4980971;28;20695;-83
2021/09/10 06:13:20;;;;;;;9.03;6.80;;;14.50;99.90;;;;;;4981655;28;20230;-83
2021/09/10 06:15:45;;;;;;;10.27;7.40;;;14.60;99.90;;;;;;4980060;28;20234;-83
2021/09/10 06:18:11;;;;;;;7.90;7.10;;;14.60;99.90;;;;;;4981886;28;20203;-83
2021/09/10 06:20:37;;;;;;;9.03;7.00;;;14.60;99.90;;;;;;4981760;28;20230;-81
2021/09/10 06:23:02;;;;;;;11.43;7.37;;;14.70;99.90;;;;;;4981132;28;20709;-81
2021/09/10 06:25:28;;;;;;;7.67;6.70;;;14.70;99.90;;;;;;4981274;28;20228;-84
2021/09/10 06:27:54;;;;;;;11.27;7.30;;;14.80;99.90;;;;;;4981454;28;20187;-84
2021/09/10 06:30:20;;;;;;;8.37;7.00;;;14.80;99.90;;;;;;4980636;28;20674;-84
2021/09/10 06:32:46;;;;;;;7.07;6.33;;;14.90;99.90;;;;;;4980977;28;20741;-81
2021/09/10 06:35:12;;;;;;;7.93;6.40;;;15.00;99.90;;;;;;4981137;28;20538;-81
2021/09/10 06:37:38;;;;;;;8.17;6.43;;;15.00;99.90;;;;;;4982328;28;20173;-81
2021/09/10 06:40:05;;;;;;;13.50;6.53;;;15.10;99.90;;;;;;4980954;28;20261;-82
2021/09/10 06:42:30;;;;;;;7.50;6.77;;;15.20;99.90;;;;;;4982486;28;20177;-81
2021/09/10 06:44:56;;;;;;;10.77;7.40;;;15.30;99.90;;;;;;4981340;28;20235;-84
2021/09/10 06:47:23;;;;;;;7.73;5.70;;;15.40;99.90;;;;;;4981995;28;20231;-81
2021/09/10 06:49:48;;;;;;;10.63;6.30;;;15.50;99.90;;;;;;4984089;28;20197;-83
2021/09/10 06:52:14;;;;;;;6.57;5.83;;;15.60;99.90;;;;;;4985014;28;20537;-84
2021/09/10 06:54:41;;;;;;;6.97;6.03;;;15.70;99.90;;;;;;4984431;28;20185;-84
2021/09/10 06:57:06;;;;;;;8.43;6.17;;;15.80;99.90;;;;;;4985868;28;20182;-84
2021/09/10 06:59:32;;;;;;;8.43;6.50;;;15.90;99.90;;;;;;4986230;28;20701;-84
2021/09/10 07:01:58;;;;;;;9.50;5.90;;;16.00;99.90;;;;;;4980674;28;20176;-84
2021/09/10 07:04:23;;;;;;;7.37;6.30;;;16.10;99.90;;;;;;4981854;28;20211;-81
2021/09/10 07:06:49;;;;;;;7.60;6.10;;;16.20;99.90;;;;;;4978774;28;20251;-81
2021/09/10 07:09:15;;;;;;;6.27;5.63;;;16.30;99.90;;;;;;4977155;28;20601;-81
2021/09/10 07:11:40;;;;;;;12.73;6.00;;;16.50;99.90;;;;;;4980441;28;20714;-81
2021/09/10 07:14:06;;;;;;;6.83;6.13;;;16.60;99.90;;;;;;4981529;28;20561;-81
2021/09/10 07:16:32;;;;;;;8.87;6.03;;;16.70;99.90;;;;;;4980530;28;20184;-81
2021/09/10 07:18:58;;;;;;;9.00;6.33;;;16.90;99.90;;;;;;4980895;28;20183;-82
2021/09/10 07:21:24;;;;;;;6.97;6.27;;;16.90;99.90;;;;;;4981636;28;20198;-81
2021/09/10 07:23:49;;;;;;;8.43;5.50;;;16.90;99.90;;;;;;4979371;28;20211;-81
2021/09/10 07:26:16;;;;;;;9.93;6.20;;;17.00;99.90;;;;;;4981076;28;20176;-81
2021/09/10 07:28:41;;;;;;;6.57;5.43;;;17.20;99.90;;;;;;4980994;28;20532;-81
2021/09/10 07:31:08;;;;;;;8.43;5.43;;;17.30;99.90;;;;;;4981144;28;20211;-81
2021/09/10 07:33:40;;;;;;;9.00;5.83;;;17.50;99.90;;;;;;4980348;28;20603;-81
2021/09/10 07:36:06;;;;;;;6.33;5.17;;;17.70;99.90;;;;;;4980684;28;20204;-81
2021/09/10 07:38:32;;;;;;;6.50;5.43;;;17.80;99.90;;;;;;4978831;28;20183;-81
2021/09/10 07:40:59;;;;;;;5.80;5.13;;;18.00;99.90;;;;;;4979779;28;20201;-81
2021/09/10 07:43:24;;;;;;;9.53;5.60;;;18.20;99.90;;;;;;4979519;28;20195;-81
2021/09/10 07:45:51;;;;;;;11.90;6.13;;;18.40;99.90;;;;;;4978575;28;20632;-81
2021/09/10 07:48:16;;;;;;;7.40;5.33;;;18.70;99.90;;;;;;4978659;28;20615;-81
2021/09/10 07:50:42;;;;;;;5.73;5.13;;;18.90;99.90;;;;;;4978232;28;20231;-81
2021/09/10 07:53:07;;;;;;;7.27;5.10;;;19.10;99.90;;;;;;4977857;28;20306;-81
2021/09/10 07:55:33;;;;;;;5.90;4.90;;;19.40;99.90;;;;;;4977916;28;20212;-81
2021/09/10 07:57:59;;;;;;;8.97;5.80;;;19.70;99.90;;;;;;4979719;28;20177;-81
2021/09/10 08:00:24;;;;;;;6.60;5.13;;;20.00;99.90;;;;;;4977971;28;20307;-81
2021/09/10 08:02:50;;;;;;;6.27;4.87;;;20.30;99.90;;;;;;4978461;28;20176;-81
2021/09/10 08:05:17;;;;;;;8.60;5.67;;;20.90;99.90;;;;;;4977419;28;20186;-81
2021/09/10 08:07:44;;;;;;;5.67;5.07;;;21.50;99.90;;;;;;4978500;28;20172;-81
2021/09/10 08:10:17;;;;;;;6.33;4.77;;;22.30;99.90;;;;;;4976421;28;20199;-81
2021/09/10 08:12:44;;;;;;;6.47;4.90;;;22.80;99.90;;;;;;4976472;28;20564;-81
2021/09/10 08:15:11;;;;;;;9.07;5.60;;;23.10;99.90;;;;;;4976978;28;20744;-81
2021/09/10 08:17:37;;;;;;;7.57;5.23;;;23.80;99.90;;;;;;4974566;28;20183;-81
2021/09/10 08:20:04;;;;;;;5.03;4.57;;;24.40;99.90;;;;;;4976279;28;20582;-81
2021/09/10 08:22:30;;;;;;;5.10;4.60;;;24.90;99.90;;;;;;4976462;28;20180;-81
2021/09/10 08:24:58;;;;;;;6.20;4.60;;;25.30;99.90;;;;;;4979814;28;20176;-81
2021/09/10 08:27:25;;;;;;;5.03;4.40;;;25.60;99.90;;;;;;4984365;28;20685;-82
2021/09/10 08:29:52;;;;;;;6.20;4.40;;;25.50;99.90;;;;;;4983013;28;20196;-82
2021/09/10 08:32:17;;;;;;;6.13;4.53;;;25.10;99.90;;;;;;4980194;28;20204;-82
2021/09/10 08:34:43;;;;;;;6.00;4.83;;;25.50;99.90;;;;;;4981614;28;20563;-82
2021/09/10 08:37:09;;;;;;;4.90;4.37;;;25.80;99.90;;;;;;4980732;28;20517;-83
2021/09/10 08:39:34;;;;;;;5.03;4.50;;;26.30;99.90;;;;;;4984879;28;20235;-82
2021/09/10 08:42:00;;;;;;;4.83;4.20;;;26.40;99.90;;;;;;4982336;28;20243;-82
2021/09/10 08:44:28;;;;;;;5.43;4.73;;;26.30;99.90;;;;;;4983275;28;20171;-82
2021/09/10 08:46:54;;;;;;;5.43;4.30;;;26.50;99.90;;;;;;4985018;28;20176;-83
2021/09/10 08:49:19;;;;;;;6.63;4.90;;;26.60;99.90;;;;;;4987070;28;20210;-82
2021/09/10 08:51:45;;;;;;;4.03;3.60;;;26.40;99.90;;;;;;4982684;28;20543;-82
2021/09/10 08:54:12;;;;;;;4.53;4.13;;;26.40;99.90;;;;;;4984844;28;20282;-83
2021/09/10 08:56:38;;;;;;;5.40;4.37;;;26.60;99.90;;;;;;4983913;28;20177;-82
2021/09/10 08:59:08;;;;;;;3.93;3.50;;;26.60;99.90;;;;;;4985208;28;20236;-82
2021/09/10 09:01:34;;;;;;;9.33;4.07;;;26.10;99.90;;;;;;4983619;28;20746;-82
2021/09/10 09:04:04;;;;;;;8.47;4.30;;;26.00;99.90;;;;;;4983007;28;20215;-82
2021/09/10 09:06:34;;;;;;;4.40;4.00;;;26.00;99.90;;;;;;4983064;28;20176;-82
2021/09/10 09:09:02;;;;;;;5.07;3.97;;;26.20;99.90;;;;;;4982355;28;20180;-82
2021/09/10 09:11:28;;;;;;;5.17;4.67;;;26.50;99.90;;;;;;4981868;28;20200;-83
2021/09/10 09:13:56;;;;;;;5.50;4.90;;;26.70;99.90;;;;;;4982019;28;20772;-82
2021/09/10 09:16:30;;;;;;;6.43;5.73;;;26.50;99.90;;;;;;4982542;28;20240;-82
2021/09/10 09:19:01;;;;;;;6.93;5.53;;;26.40;99.90;;;;;;4982669;28;20178;-83
2021/09/10 09:21:28;;;;;;;6.23;5.63;;;25.90;99.90;;;;;;4983777;28;20249;-82
2021/09/10 09:23:57;;;;;;;6.30;5.63;;;25.80;99.90;;;;;;4982070;28;20544;-82
2021/09/10 09:26:28;;;;;;;6.53;5.47;;;25.80;99.90;;;;;;4984295;28;20182;-82
2021/09/10 09:29:06;;;;;;;6.40;5.80;;;25.90;99.90;;;;;;4983708;28;20181;-82
2021/09/10 09:31:31;;;;;;;7.73;5.57;;;26.30;99.90;;;;;;4983836;28;20256;-82
2021/09/10 09:33:57;;;;;;;11.00;5.67;;;26.50;99.90;;;;;;4982724;28;20213;-82
2021/09/10 09:36:23;;;;;;;7.23;5.90;;;26.70;99.90;;;;;;4982909;28;20202;-82
2021/09/10 09:38:49;;;;;;;6.57;5.80;;;26.90;99.90;;;;;;4983984;28;20178;-82
2021/09/10 09:41:21;;;;;;;8.80;5.60;;;27.10;99.90;;;;;;4982347;28;20388;-83
2021/09/10 09:43:52;;;;;;;7.53;5.60;;;27.40;99.90;;;;;;4982767;28;20187;-82
2021/09/10 09:46:21;;;;;;;5.87;5.27;;;27.40;99.90;;;;;;4984579;28;20639;-83
2021/09/10 09:48:49;;;;;;;9.90;5.80;;;27.60;99.90;;;;;;4983593;28;20646;-83
2021/09/10 09:51:19;;;;;;;7.53;5.20;;;27.70;99.90;;;;;;4983121;28;20233;-83
2021/09/10 09:53:46;;;;;;;5.87;5.33;;;27.70;99.90;;;;;;4984519;28;20270;-83
2021/09/10 09:56:12;;;;;;;8.40;5.73;;;27.80;99.90;;;;;;4982650;28;20181;-83
2021/09/10 09:58:39;;;;;;;5.60;4.97;;;27.30;99.90;;;;;;4982464;28;20179;-83
2021/09/10 10:01:06;;;;;;;5.47;4.93;;;26.90;99.90;;;;;;4982990;28;20204;-82
2021/09/10 10:03:32;;;;;;;8.53;5.00;;;26.90;99.90;;;;;;4981621;28;20184;-83
2021/09/10 10:06:08;;;;;;;7.07;4.70;;;26.60;99.90;;;;;;4984424;28;20187;-85
2021/09/10 10:08:43;;;;;;;6.00;4.70;;;26.70;99.90;;;;;;4982590;28;20388;-83
2021/09/10 10:11:13;;;;;;;5.67;5.17;;;27.10;99.90;;;;;;4983316;28;20324;-84
2021/09/10 10:13:38;;;;;;;5.70;5.20;;;27.30;99.90;;;;;;4985128;28;20208;-83
2021/09/10 10:16:04;;;;;;;10.50;5.23;;;27.40;99.90;;;;;;4983178;28;20187;-83
2021/09/10 10:18:43;;;;;;;6.23;5.13;;;27.80;99.90;;;;;;4981592;28;20267;-84
2021/09/10 10:21:14;;;;;;;5.43;4.90;;;27.80;99.90;;;;;;4981615;28;20682;-84
2021/09/10 10:23:45;;;;;;;5.70;4.97;;;27.90;99.90;;;;;;4982832;28;20284;-84
2021/09/10 10:26:15;;;;;;;6.13;4.83;;;27.80;99.90;;;;;;4981955;28;20196;-83
2021/09/10 10:28:50;;;;;;;5.70;5.00;;;27.90;98.80;;;;;;4981891;28;20195;-82
2021/09/10 10:31:17;;;;;;;5.37;4.87;;;27.80;99.40;;;;;;4981119;28;20610;-82
2021/09/10 10:34:02;;;;;;;5.83;5.23;;;27.90;99.90;;;;;;4981803;28;20209;-82
2021/09/10 10:36:36;;;;;;;6.17;5.57;;;28.10;99.70;;;;;;4983691;28;20192;-81
2021/09/10 10:39:07;;;;;;;7.27;6.07;;;28.30;99.90;;;;;;4981654;28;20183;-80
2021/09/10 10:41:48;;;;;;;6.27;5.67;;;28.20;99.00;;;;;;4984353;28;20247;-78
2021/09/10 10:44:32;;;;;;;5.93;5.43;;;28.20;99.90;;;;;;4987342;28;20169;-81
2021/09/10 10:47:06;;;;;;;7.77;5.37;;;28.40;99.20;;;;;;4983081;28;20537;-80
2021/09/10 10:49:33;;;;;;;7.10;4.83;;;28.50;99.90;;;;;;4982027;28;20522;-79
2021/09/10 10:51:59;;;;;;;4.90;4.50;;;28.60;99.60;;;;;;4979691;28;20217;-80
2021/09/10 10:54:30;;;;;;;5.20;4.70;;;28.60;96.20;;;;;;4981918;28;20212;-81
2021/09/10 10:57:00;;;;;;;4.80;4.30;;;28.50;97.60;;;;;;4980226;28;20175;-79
2021/09/10 10:59:26;;;;;;;4.37;3.97;;;29.00;96.40;;;;;;4979563;28;20175;-79
2021/09/10 11:02:32;;;;;;;4.83;4.43;;;29.20;96.70;;;;;;4981935;28;20215;-80
2021/09/10 11:05:26;;;;;;;5.00;4.60;;;29.20;92.90;;;;;;4982612;28;20239;-82
2021/09/10 11:07:52;;;;;;;5.17;4.30;;;29.00;95.50;;;;;;4980145;28;20559;-80
2021/09/10 11:10:19;;;;;;;7.10;4.97;;;29.10;98.70;;;;;;4980575;28;20200;-79
2021/09/10 11:12:55;;;;;;;4.90;4.50;;;28.70;96.10;;;;;;4980922;28;20210;-79
2021/09/10 11:15:26;;;;;;;5.53;4.63;;;28.00;98.40;;;;;;4979199;28;20166;-82
2021/09/10 11:18:08;;;;;;;5.63;4.63;;;28.30;97.40;;;;;;4979403;28;20168;-81
2021/09/10 11:20:38;;;;;;;6.87;5.00;;;28.40;96.60;;;;;;4978576;28;20220;-81
2021/09/10 11:23:28;;;;;;;5.93;4.93;;;28.50;96.50;;;;;;4979672;28;20279;-80
2021/09/10 11:25:56;;;;;;;7.50;5.10;;;28.80;96.80;;;;;;4980228;28;20179;-82
2021/09/10 11:28:28;;;;;;;4.93;4.43;;;29.20;95.60;;;;;;4980332;28;20204;-80
2021/09/10 11:30:54;;;;;;;4.93;4.53;;;29.90;99.60;;;;;;4980675;28;20284;-79
2021/09/10 11:33:21;;;;;;;5.03;4.53;;;30.30;97.50;;;;;;4980499;28;20239;-81
2021/09/10 11:35:51;;;;;;;5.70;4.60;;;31.10;94.40;;;;;;4980466;28;20198;-80
2021/09/10 11:38:20;;;;;;;5.43;4.30;;;31.30;95.70;;;;;;4979174;28;20643;-79
2021/09/10 11:40:57;;;;;;;4.63;4.23;;;31.30;94.70;;;;;;4978856;28;20195;-79
2021/09/10 11:43:28;;;;;;;5.70;4.20;;;31.20;91.30;;;;;;4978810;28;20242;-79
2021/09/10 11:45:56;;;;;;;4.53;4.13;;;30.00;90.40;;;;;;4980251;28;20164;-79
2021/09/10 11:48:31;;;;;;;4.50;4.10;;;29.20;93.00;;;;;;4978326;28;20641;-81
2021/09/10 11:50:57;;;;;;;4.90;4.50;;;29.30;92.10;;;;;;4977787;28;20207;-79
2021/09/10 11:53:30;;;;;;;6.53;4.30;;;29.50;92.80;;;;;;4980480;28;20262;-80
2021/09/10 11:56:05;;;;;;;4.47;3.93;;;29.90;93.50;;;;;;4978681;28;20186;-81
2021/09/10 11:58:51;;;;;;;5.00;4.03;;;30.10;92.40;;;;;;4979856;28;20165;-83
2021/09/10 12:01:38;;;;;;;4.87;4.30;;;30.20;90.70;;;;;;4978976;28;20202;-80
2021/09/10 12:04:09;;;;;;;4.30;4.00;;;30.20;92.80;;;;;;4979895;28;20165;-80
2021/09/10 12:06:49;;;;;;;4.57;4.17;;;30.60;91.70;;;;;;4980590;28;20192;-81
2021/09/10 12:09:20;;;;;;;4.57;4.17;;;30.70;83.60;;;;;;4980610;28;20273;-79
2021/09/10 12:11:59;;;;;;;4.30;3.90;;;30.20;91.40;;;;;;4979163;28;20201;-81
2021/09/10 12:14:44;;;;;;;4.33;3.97;;;30.20;90.80;;;;;;4981227;28;20221;-79
2021/09/10 12:17:20;;;;;;;5.80;3.97;;;31.00;91.60;;;;;;4983190;28;20183;-82
2021/09/10 12:19:45;;;;;;;4.40;4.00;;;31.90;88.50;;;;;;4984806;28;20210;-83
2021/09/10 12:22:37;;;;;;;4.83;4.37;;;31.90;91.00;;;;;;4983857;28;20203;-83
2021/09/10 12:25:22;;;;;;;4.77;4.23;;;32.70;83.00;;;;;;4979303;28;20329;-82
2021/09/10 12:27:53;;;;;;;5.83;4.40;;;32.00;86.10;;;;;;4983971;28;20688;-83
2021/09/10 12:30:21;;;;;;;4.53;4.00;;;31.90;83.60;;;;;;4982931;28;20201;-83
2021/09/10 12:32:47;;;;;;;4.40;4.00;;;32.20;83.80;;;;;;4981718;28;20207;-83
2021/09/10 12:35:13;;;;;;;7.77;4.23;;;31.50;85.90;;;;;;4982183;28;20264;-82
2021/09/10 12:37:39;;;;;;;4.53;4.13;;;30.10;87.90;;;;;;4981967;28;20192;-82
2021/09/10 12:40:05;;;;;;;7.97;5.07;;;27.90;87.40;;;;;;4981179;28;20211;-83
2021/09/10 12:42:32;;;;;;;4.97;4.30;;;;;;;;;;4982029;28;20603;-82
2021/09/10 12:44:57;;;;;;;4.97;3.90;;;27.90;92.00;;;;;;4981828;28;20180;-82
2021/09/10 12:47:23;;;;;;;5.87;4.27;;;29.30;94.80;;;;;;4983920;28;20225;-81